Time;durP1;ratioP1;P1;durP2;ratioP2;P2;SDS_P1;SDS_P2;PMS_P1;PMS_P2;Temp;Humidity;BMP_temperature;BMP_pressure;BME280_temperature;BME280_humidity;BME280_pressure;Samples;Min_cycle;Max_cycle;Signal;HPM_P1;HPM_P2
2023/03/28 00:01:55;;;;;;;2.45;1.45;;;10.80;99.90;;;;;;5033203;28;20030;-40
2023/03/28 00:04:21;;;;;;;2.25;1.20;;;10.80;99.90;;;;;;5033520;28;20029;-40
2023/03/28 00:06:48;;;;;;;1.15;1.05;;;10.80;99.90;;;;;;5033654;28;20096;-36
2023/03/28 00:09:14;;;;;;;2.63;1.15;;;10.70;99.90;;;;;;5033652;28;20492;-40
2023/03/28 00:11:39;;;;;;;2.50;1.05;;;10.70;99.90;;;;;;5033433;28;20103;-36
2023/03/28 00:14:07;;;;;;;2.67;1.45;;;10.70;99.90;;;;;;5032922;28;20061;-36
2023/03/28 00:16:38;;;;;;;1.70;1.08;;;10.70;99.90;;;;;;5033071;28;20079;-40
2023/03/28 00:19:08;;;;;;;2.97;1.30;;;10.70;99.90;;;;;;5032721;28;20032;-39
2023/03/28 00:21:37;;;;;;;2.50;1.00;;;10.70;99.90;;;;;;5030917;28;20021;-37
2023/03/28 00:24:09;;;;;;;1.70;1.17;;;10.80;99.90;;;;;;5034537;28;20517;-37
2023/03/28 00:26:35;;;;;;;1.60;1.10;;;10.70;99.90;;;;;;5032591;28;20024;-38
2023/03/28 00:29:03;;;;;;;1.27;0.80;;;10.70;99.90;;;;;;5033628;28;20124;-38
2023/03/28 00:31:33;;;;;;;1.60;1.10;;;10.70;99.90;;;;;;5032340;28;20028;-38
2023/03/28 00:33:59;;;;;;;2.47;1.00;;;10.70;99.90;;;;;;5032455;28;20399;-36
2023/03/28 00:36:28;;;;;;;1.60;1.10;;;10.70;99.90;;;;;;5032121;28;20503;-36
2023/03/28 00:38:54;;;;;;;1.67;0.98;;;10.70;99.90;;;;;;5031694;28;20475;-39
2023/03/28 00:41:22;;;;;;;1.27;0.98;;;10.70;99.90;;;;;;5033166;28;20030;-38
2023/03/28 00:43:54;;;;;;;2.80;1.02;;;10.70;99.90;;;;;;5032916;28;20025;-39
2023/03/28 00:46:41;;;;;;;1.58;1.00;;;10.70;99.90;;;;;;5031686;28;20383;-39
2023/03/28 00:49:23;;;;;;;2.92;1.00;;;10.70;99.90;;;;;;5033356;28;20029;-36
2023/03/28 00:51:56;;;;;;;1.90;0.90;;;10.70;99.90;;;;;;5032179;28;20025;-40
2023/03/28 00:54:26;;;;;;;1.88;0.95;;;10.70;99.90;;;;;;5030899;28;20091;-38
2023/03/28 00:56:56;;;;;;;3.00;0.90;;;10.70;99.90;;;;;;5031335;28;20487;-39
2023/03/28 00:59:25;;;;;;;3.42;1.13;;;10.70;99.90;;;;;;5031982;28;20029;-39
2023/03/28 01:01:54;;;;;;;1.65;1.15;;;10.70;99.90;;;;;;5032070;28;20400;-39
2023/03/28 01:04:23;;;;;;;1.42;0.90;;;10.60;99.90;;;;;;5031620;28;20041;-40
2023/03/28 01:06:53;;;;;;;1.38;0.80;;;10.60;99.90;;;;;;5031949;28;20017;-36
2023/03/28 01:09:22;;;;;;;2.05;0.93;;;10.70;99.90;;;;;;5031338;28;20554;-38
2023/03/28 01:11:49;;;;;;;3.35;1.00;;;10.70;99.90;;;;;;5031598;28;20025;-42
2023/03/28 01:14:19;;;;;;;1.95;1.13;;;10.60;99.90;;;;;;5031507;28;20484;-37
2023/03/28 01:16:46;;;;;;;1.85;0.93;;;10.60;99.90;;;;;;5031139;28;20077;-39
2023/03/28 01:19:25;;;;;;;1.90;1.00;;;10.60;99.90;;;;;;5031707;28;20048;-36
2023/03/28 01:21:57;;;;;;;1.90;1.10;;;10.60;99.90;;;;;;5031902;28;20096;-38
2023/03/28 01:24:43;;;;;;;1.40;0.80;;;10.60;99.90;;;;;;5032085;28;20018;-36
2023/03/28 01:27:29;;;;;;;1.58;1.05;;;10.60;99.90;;;;;;5031257;28;20026;-39
2023/03/28 01:30:21;;;;;;;1.65;0.85;;;10.60;99.90;;;;;;5031431;28;20116;-36
2023/03/28 01:33:06;;;;;;;2.33;1.30;;;10.60;99.90;;;;;;5032686;28;20403;-38
2023/03/28 01:36:11;;;;;;;1.73;1.08;;;10.60;99.90;;;;;;5031441;28;20097;-38
2023/03/28 01:38:51;;;;;;;1.95;1.00;;;10.50;99.90;;;;;;5030948;28;20034;-38
2023/03/28 01:41:39;;;;;;;1.55;0.80;;;10.50;99.90;;;;;;5031644;28;20022;-36
2023/03/28 01:44:10;;;;;;;2.42;1.10;;;10.50;99.90;;;;;;5037259;28;20017;-39
2023/03/28 01:46:42;;;;;;;1.38;1.00;;;10.50;99.90;;;;;;5035048;28;20017;-36
2023/03/28 01:49:31;;;;;;;2.28;1.10;;;10.50;99.90;;;;;;5036070;28;20034;-38
2023/03/28 01:52:05;;;;;;;2.30;1.20;;;10.50;99.90;;;;;;5036246;28;20029;-36
2023/03/28 01:54:40;;;;;;;;;;;10.50;99.90;;;;;;5037834;28;20073;-36
2023/03/28 01:57:06;;;;;;;1.23;0.90;;;10.50;99.90;;;;;;5034659;28;19979;-39
2023/03/28 01:59:53;;;;;;;1.27;0.90;;;10.50;99.90;;;;;;5034528;28;20155;-36
2023/03/28 02:02:22;;;;;;;2.35;1.13;;;10.40;99.90;;;;;;5037243;28;20514;-36
2023/03/28 02:04:49;;;;;;;1.67;0.95;;;10.60;99.90;;;;;;5035636;28;20025;-36
2023/03/28 02:07:20;;;;;;;2.03;1.00;;;10.90;99.90;;;;;;5034666;28;20169;-39
2023/03/28 02:09:47;;;;;;;2.25;1.08;;;11.10;99.90;;;;;;5035324;28;20530;-39
2023/03/28 02:12:25;;;;;;;1.95;0.93;;;11.10;99.90;;;;;;5034413;28;20061;-37
2023/03/28 02:14:55;;;;;;;1.88;1.10;;;11.10;99.90;;;;;;5032951;28;20103;-38
2023/03/28 02:17:23;;;;;;;1.20;0.88;;;11.00;99.90;;;;;;5035834;28;20449;-36
2023/03/28 02:19:57;;;;;;;1.90;1.00;;;10.90;99.90;;;;;;5034839;28;20044;-38
2023/03/28 02:22:34;;;;;;;1.92;1.05;;;10.90;99.90;;;;;;5035585;28;20104;-36
2023/03/28 02:25:00;;;;;;;2.20;1.00;;;10.80;99.90;;;;;;5036931;28;20415;-38
2023/03/28 02:27:26;;;;;;;2.40;1.20;;;10.80;99.90;;;;;;5034406;28;20021;-39
2023/03/28 02:29:53;;;;;;;1.63;0.98;;;10.70;99.90;;;;;;5034941;28;20069;-36
2023/03/28 02:32:23;;;;;;;2.90;1.08;;;10.70;99.90;;;;;;5036074;28;20434;-37
2023/03/28 02:34:52;;;;;;;1.92;1.08;;;10.70;99.90;;;;;;5035012;28;20119;-39
2023/03/28 02:37:26;;;;;;;1.25;0.90;;;10.70;99.90;;;;;;5035044;28;20466;-39
2023/03/28 02:40:13;;;;;;;2.08;1.23;;;10.70;99.90;;;;;;5035601;28;20029;-36
2023/03/28 02:43:16;;;;;;;2.80;1.10;;;10.60;99.90;;;;;;5036086;28;20036;-36
2023/03/28 02:46:07;;;;;;;2.03;0.98;;;10.60;99.90;;;;;;5035055;28;20064;-39
2023/03/28 02:48:39;;;;;;;2.38;1.40;;;10.60;99.90;;;;;;5034726;28;20516;-36
2023/03/28 02:51:13;;;;;;;2.83;1.42;;;10.60;99.90;;;;;;5034698;28;20022;-36
2023/03/28 02:53:55;;;;;;;2.23;1.33;;;10.60;99.90;;;;;;5033085;28;20415;-36
2023/03/28 02:56:50;;;;;;;1.95;0.90;;;10.60;99.90;;;;;;5033395;28;20018;-38
2023/03/28 02:59:26;;;;;;;2.08;1.10;;;10.60;99.90;;;;;;5033993;28;20029;-36
2023/03/28 03:01:52;;;;;;;2.42;1.20;;;10.60;99.90;;;;;;5033634;28;20033;-36
2023/03/28 03:04:18;;;;;;;2.38;1.40;;;10.70;99.90;;;;;;5034061;28;20032;-39
2023/03/28 03:06:44;;;;;;;3.55;1.30;;;10.90;99.90;;;;;;5032973;28;20021;-36
2023/03/28 03:09:10;;;;;;;2.35;1.02;;;11.10;99.90;;;;;;5033355;28;20037;-37
2023/03/28 03:11:36;;;;;;;2.03;1.10;;;11.00;99.90;;;;;;5033553;28;20032;-38
2023/03/28 03:14:02;;;;;;;1.52;1.10;;;10.90;99.90;;;;;;5034227;28;20025;-36
2023/03/28 03:16:28;;;;;;;1.60;1.02;;;10.80;99.90;;;;;;5034019;28;20029;-39
2023/03/28 03:18:55;;;;;;;2.90;1.20;;;10.80;99.90;;;;;;5034658;28;20036;-36
2023/03/28 03:21:22;;;;;;;2.10;0.95;;;10.80;99.90;;;;;;5034478;28;20029;-38
2023/03/28 03:23:49;;;;;;;2.63;1.30;;;10.70;99.90;;;;;;5033103;28;20082;-36
2023/03/28 03:26:15;;;;;;;2.22;1.02;;;10.70;99.90;;;;;;5033003;28;20067;-36
2023/03/28 03:28:40;;;;;;;1.80;1.08;;;10.60;99.90;;;;;;5035056;28;20025;-39
2023/03/28 03:31:06;;;;;;;1.73;1.05;;;10.60;99.90;;;;;;5033001;28;20021;-38
2023/03/28 03:33:32;;;;;;;2.20;1.00;;;10.60;99.90;;;;;;5032867;28;20021;-39
2023/03/28 03:35:58;;;;;;;1.52;0.98;;;10.50;99.90;;;;;;5033247;28;20026;-40
2023/03/28 03:38:23;;;;;;;1.77;1.00;;;10.50;99.90;;;;;;5034219;28;20025;-35
2023/03/28 03:40:49;;;;;;;1.80;1.10;;;10.50;99.90;;;;;;5032949;28;20487;-36
2023/03/28 03:43:15;;;;;;;2.63;1.25;;;10.50;99.90;;;;;;5033241;28;20387;-36
2023/03/28 03:45:44;;;;;;;1.63;1.00;;;10.50;99.90;;;;;;5032773;28;20028;-37
2023/03/28 03:48:10;;;;;;;1.73;1.02;;;10.50;99.90;;;;;;5034327;28;20018;-36
2023/03/28 03:50:36;;;;;;;2.95;1.10;;;10.50;99.90;;;;;;5033035;28;20025;-36
2023/03/28 03:53:01;;;;;;;2.58;1.08;;;10.50;99.90;;;;;;5033732;28;20467;-36
2023/03/28 03:55:27;;;;;;;2.25;1.42;;;10.50;99.90;;;;;;5034709;28;20049;-38
2023/03/28 03:57:53;;;;;;;3.10;1.10;;;10.50;99.90;;;;;;5034013;28;20044;-38
2023/03/28 04:00:18;;;;;;;2.22;1.00;;;10.50;99.90;;;;;;5032651;28;20036;-40
2023/03/28 04:02:45;;;;;;;1.70;1.05;;;10.50;99.90;;;;;;5032982;28;20029;-36
2023/03/28 04:05:11;;;;;;;2.30;1.08;;;10.60;99.90;;;;;;5032392;28;20507;-39
2023/03/28 04:07:37;;;;;;;1.65;1.17;;;10.80;99.90;;;;;;5033168;28;20057;-40
2023/03/28 04:10:03;;;;;;;2.45;1.27;;;10.90;99.90;;;;;;5032564;28;20056;-36
2023/03/28 04:12:29;;;;;;;2.40;1.30;;;10.90;99.90;;;;;;5033875;28;20026;-38
2023/03/28 04:14:55;;;;;;;2.95;1.33;;;10.80;99.90;;;;;;5033423;28;20079;-38
2023/03/28 04:17:22;;;;;;;3.67;1.17;;;10.70;99.90;;;;;;5031866;28;20503;-39
2023/03/28 04:19:48;;;;;;;2.15;1.15;;;10.70;99.90;;;;;;5031895;28;20021;-40
2023/03/28 04:22:17;;;;;;;3.45;1.23;;;10.60;99.90;;;;;;5032550;28;20022;-36
2023/03/28 04:24:44;;;;;;;2.83;1.27;;;10.60;99.90;;;;;;5032974;28;20059;-36
2023/03/28 04:27:10;;;;;;;3.50;1.33;;;10.50;99.90;;;;;;5032806;28;20017;-38
2023/03/28 04:29:38;;;;;;;2.35;1.20;;;10.50;99.90;;;;;;5032427;28;20029;-38
2023/03/28 04:32:05;;;;;;;2.10;1.15;;;10.40;99.90;;;;;;5032729;28;20025;-38
2023/03/28 04:34:32;;;;;;;2.42;1.10;;;10.40;99.90;;;;;;5032056;28;20037;-36
2023/03/28 04:37:04;;;;;;;1.90;1.10;;;10.40;99.90;;;;;;5033045;28;20395;-36
2023/03/28 04:39:32;;;;;;;3.38;1.10;;;10.40;99.90;;;;;;5032695;28;20033;-36
2023/03/28 04:42:00;;;;;;;1.65;1.20;;;10.40;99.90;;;;;;5032350;28;20025;-36
2023/03/28 04:44:30;;;;;;;2.85;1.33;;;10.30;99.90;;;;;;5032782;28;20104;-39
2023/03/28 04:46:57;;;;;;;2.80;1.40;;;10.30;99.90;;;;;;5030984;28;20037;-37
2023/03/28 04:49:23;;;;;;;3.05;1.48;;;10.30;99.90;;;;;;5030231;28;20026;-36
2023/03/28 04:51:51;;;;;;;3.80;1.60;;;10.30;99.90;;;;;;5032631;28;20025;-38
2023/03/28 04:54:18;;;;;;;3.40;1.80;;;10.30;99.90;;;;;;5031532;28;20476;-37
2023/03/28 04:56:46;;;;;;;3.60;1.98;;;10.30;99.90;;;;;;5032965;28;20044;-39
2023/03/28 04:59:12;;;;;;;3.58;1.55;;;10.30;99.90;;;;;;5032097;28;20432;-40
2023/03/28 05:01:38;;;;;;;2.72;1.40;;;10.30;99.90;;;;;;5031597;28;20041;-40
2023/03/28 05:04:04;;;;;;;2.90;1.45;;;10.30;99.90;;;;;;5033692;28;20060;-39
2023/03/28 05:06:29;;;;;;;3.22;1.52;;;10.60;99.90;;;;;;5032571;28;20045;-36
2023/03/28 05:08:55;;;;;;;4.72;1.50;;;10.80;99.90;;;;;;5032804;28;20227;-39
2023/03/28 05:11:20;;;;;;;2.63;1.45;;;10.70;99.90;;;;;;5034315;28;20029;-40
2023/03/28 05:13:46;;;;;;;2.83;1.38;;;10.70;99.90;;;;;;5031275;28;20395;-36
2023/03/28 05:16:12;;;;;;;3.55;1.60;;;10.60;99.90;;;;;;5030118;28;20033;-38
2023/03/28 05:18:37;;;;;;;2.20;1.35;;;10.60;99.90;;;;;;5031062;28;20061;-38
2023/03/28 05:21:03;;;;;;;2.90;1.50;;;10.50;99.90;;;;;;5032300;28;20053;-36
2023/03/28 05:23:29;;;;;;;2.92;1.55;;;10.40;99.90;;;;;;5030981;28;20061;-39
2023/03/28 05:25:54;;;;;;;2.67;1.40;;;10.40;99.90;;;;;;5031521;28;20495;-37
2023/03/28 05:28:20;;;;;;;2.95;1.80;;;10.30;99.90;;;;;;5032036;28;20022;-39
2023/03/28 05:30:46;;;;;;;2.35;1.27;;;10.30;99.90;;;;;;5031391;28;20025;-35
2023/03/28 05:33:12;;;;;;;3.03;1.77;;;10.30;99.90;;;;;;5030999;28;20467;-39
2023/03/28 05:35:38;;;;;;;2.85;1.50;;;10.20;99.90;;;;;;5032414;28;20037;-38
2023/03/28 05:38:04;;;;;;;4.35;1.60;;;10.20;99.90;;;;;;5031845;28;20033;-36
2023/03/28 05:40:30;;;;;;;4.10;1.55;;;10.20;99.90;;;;;;5030064;28;20080;-36
2023/03/28 05:42:56;;;;;;;5.50;2.28;;;10.20;99.90;;;;;;5031025;28;20117;-40
2023/03/28 05:45:21;;;;;;;3.95;1.90;;;10.20;99.90;;;;;;5029487;28;20159;-39
2023/03/28 05:47:50;;;;;;;4.43;2.45;;;10.20;99.90;;;;;;5030649;28;20100;-36
2023/03/28 05:50:16;;;;;;;3.78;2.00;;;10.20;99.90;;;;;;5031190;28;20052;-36
2023/03/28 05:52:41;;;;;;;4.50;2.17;;;10.20;99.90;;;;;;5031940;28;20030;-36
2023/03/28 05:55:07;;;;;;;5.60;2.53;;;10.20;99.90;;;;;;5031653;28;20126;-39
2023/03/28 05:57:33;;;;;;;5.78;2.60;;;10.10;99.90;;;;;;5031996;28;20029;-38
2023/03/28 05:59:59;;;;;;;5.00;2.20;;;10.20;99.90;;;;;;5032889;28;20369;-36
2023/03/28 06:02:25;;;;;;;4.82;2.08;;;10.10;99.90;;;;;;5031182;28;20080;-40
2023/03/28 06:04:53;;;;;;;4.43;2.40;;;10.30;99.90;;;;;;5032331;28;20076;-36
2023/03/28 06:07:20;;;;;;;3.65;2.03;;;10.50;99.90;;;;;;5033092;28;20033;-39
2023/03/28 06:09:46;;;;;;;4.72;2.50;;;10.50;99.90;;;;;;5031487;28;20025;-37
2023/03/28 06:12:12;;;;;;;4.18;2.00;;;10.50;99.90;;;;;;5030550;28;20099;-39
2023/03/28 06:14:38;;;;;;;4.38;2.10;;;10.40;99.90;;;;;;5031325;28;20069;-38
2023/03/28 06:17:06;;;;;;;4.15;2.08;;;10.40;99.90;;;;;;5030278;28;20053;-37
2023/03/28 06:19:32;;;;;;;4.60;2.20;;;10.30;99.90;;;;;;5031603;28;20113;-38
2023/03/28 06:21:57;;;;;;;3.97;2.28;;;10.30;99.90;;;;;;5031489;28;20109;-38
2023/03/28 06:24:23;;;;;;;4.97;2.38;;;10.20;99.90;;;;;;5030437;28;20387;-38
2023/03/28 06:26:48;;;;;;;3.25;1.90;;;10.20;99.90;;;;;;5030074;28;20022;-38
2023/03/28 06:29:15;;;;;;;3.72;1.98;;;10.10;99.90;;;;;;5034244;28;20036;-36
2023/03/28 06:31:40;;;;;;;5.20;2.10;;;10.20;99.90;;;;;;5035848;28;20325;-40
2023/03/28 06:34:06;;;;;;;4.68;2.10;;;10.10;99.90;;;;;;5036252;28;20529;-36
2023/03/28 06:36:32;;;;;;;4.55;2.25;;;10.10;99.90;;;;;;5033574;28;20037;-36
2023/03/28 06:38:57;;;;;;;4.07;2.17;;;10.10;99.90;;;;;;5034177;28;20063;-36
2023/03/28 06:41:23;;;;;;;3.33;2.08;;;10.10;99.90;;;;;;5032996;28;20018;-37
2023/03/28 06:43:49;;;;;;;5.03;2.33;;;10.10;99.90;;;;;;5034247;28;20494;-38
2023/03/28 06:46:15;;;;;;;2.50;1.75;;;10.10;99.90;;;;;;5035058;28;20017;-36
2023/03/28 06:48:41;;;;;;;4.78;2.58;;;10.10;99.90;;;;;;5034176;28;20032;-36
2023/03/28 06:51:07;;;;;;;3.53;2.33;;;10.20;99.90;;;;;;5032500;28;20478;-36
2023/03/28 06:53:34;;;;;;;3.97;1.98;;;10.20;99.90;;;;;;5033785;28;20101;-40
2023/03/28 06:56:00;;;;;;;4.88;2.17;;;10.20;99.90;;;;;;5034472;28;20483;-38
2023/03/28 06:58:27;;;;;;;3.45;1.73;;;10.20;99.90;;;;;;5034989;28;20112;-38
2023/03/28 07:00:57;;;;;;;3.92;1.88;;;10.20;99.90;;;;;;5034839;28;20052;-37
2023/03/28 07:03:22;;;;;;;3.05;2.10;;;10.30;99.90;;;;;;5035135;28;20030;-38
2023/03/28 07:05:48;;;;;;;6.30;2.30;;;10.20;99.90;;;;;;5035537;28;20018;-39
2023/03/28 07:08:14;;;;;;;3.55;2.00;;;10.30;99.90;;;;;;5034685;28;20499;-36
2023/03/28 07:10:40;;;;;;;3.67;2.00;;;10.30;99.90;;;;;;5033307;28;20442;-36
2023/03/28 07:13:07;;;;;;;3.35;1.70;;;10.30;99.90;;;;;;5033308;28;20072;-40
2023/03/28 07:15:33;;;;;;;3.72;2.13;;;10.30;99.90;;;;;;5034459;28;20026;-37
2023/03/28 07:17:58;;;;;;;4.07;1.90;;;10.30;99.90;;;;;;5032968;28;20033;-38
2023/03/28 07:20:25;;;;;;;3.40;2.10;;;10.30;99.90;;;;;;5034970;28;20029;-38
2023/03/28 07:22:51;;;;;;;3.53;1.80;;;10.30;99.90;;;;;;5034487;28;20128;-36
2023/03/28 07:25:17;;;;;;;2.83;1.67;;;10.30;99.90;;;;;;5035034;28;20068;-40
2023/03/28 07:27:43;;;;;;;3.70;1.58;;;10.30;99.90;;;;;;5032791;28;20456;-36
2023/03/28 07:30:10;;;;;;;3.53;2.10;;;10.30;99.90;;;;;;5034380;28;20108;-39
2023/03/28 07:32:35;;;;;;;3.72;1.88;;;10.30;99.90;;;;;;5033324;28;20056;-39
2023/03/28 07:35:02;;;;;;;4.43;2.10;;;10.30;99.90;;;;;;5033417;28;20025;-39
2023/03/28 07:37:28;;;;;;;4.57;1.98;;;10.30;99.90;;;;;;5032409;28;20040;-39
2023/03/28 07:39:55;;;;;;;3.50;1.75;;;10.30;99.90;;;;;;5033692;28;20030;-36
2023/03/28 07:42:21;;;;;;;3.75;2.00;;;10.30;99.90;;;;;;5033314;28;20084;-40
2023/03/28 07:44:47;;;;;;;2.60;1.67;;;10.30;99.90;;;;;;5034158;28;20455;-36
2023/03/28 07:47:12;;;;;;;4.30;1.75;;;10.30;99.90;;;;;;5034032;28;20061;-36
2023/03/28 07:49:41;;;;;;;2.63;1.63;;;10.30;99.90;;;;;;5033596;28;20104;-39
2023/03/28 07:52:07;;;;;;;2.97;1.75;;;10.30;99.90;;;;;;5033117;28;20029;-37
2023/03/28 07:54:33;;;;;;;3.65;1.98;;;10.30;99.90;;;;;;5033637;28;20095;-36
2023/03/28 07:56:59;;;;;;;2.50;1.50;;;10.40;99.90;;;;;;5032380;28;20037;-39
2023/03/28 07:59:25;;;;;;;3.95;2.20;;;10.30;99.90;;;;;;5033022;28;20029;-38
2023/03/28 08:01:51;;;;;;;3.08;1.52;;;10.40;99.90;;;;;;5034015;28;20041;-38
2023/03/28 08:04:17;;;;;;;2.90;1.58;;;10.30;99.90;;;;;;5034475;28;20479;-39
2023/03/28 08:06:44;;;;;;;3.08;1.50;;;10.40;99.90;;;;;;5033997;28;20081;-39
2023/03/28 08:09:12;;;;;;;5.95;1.80;;;10.40;99.90;;;;;;5034332;28;20055;-37
2023/03/28 08:11:40;;;;;;;2.22;1.60;;;10.50;99.90;;;;;;5032252;28;20033;-39
2023/03/28 08:14:09;;;;;;;3.15;1.70;;;10.50;99.90;;;;;;5032356;28;20391;-36
2023/03/28 08:16:35;;;;;;;4.20;1.63;;;10.40;99.90;;;;;;5032094;28;20034;-36
2023/03/28 08:19:01;;;;;;;2.90;1.73;;;10.50;99.90;;;;;;5032049;28;20038;-37
2023/03/28 08:21:30;;;;;;;3.30;1.90;;;10.50;99.90;;;;;;5031997;28;20029;-38
2023/03/28 08:23:56;;;;;;;2.88;1.67;;;10.50;99.90;;;;;;5033302;28;20075;-37
2023/03/28 08:26:22;;;;;;;2.15;1.55;;;10.60;99.90;;;;;;5031437;28;20032;-39
2023/03/28 08:28:48;;;;;;;4.35;1.77;;;10.60;99.90;;;;;;5032000;28;20130;-40
2023/03/28 08:31:15;;;;;;;3.03;1.70;;;10.60;99.90;;;;;;5031972;28;20037;-39
2023/03/28 08:33:42;;;;;;;3.47;1.40;;;10.60;99.90;;;;;;5032565;28;20036;-39
2023/03/28 08:36:13;;;;;;;3.15;1.60;;;10.60;99.90;;;;;;5033420;28;20029;-36
2023/03/28 08:38:43;;;;;;;2.65;1.67;;;10.60;99.90;;;;;;5032027;28;20021;-36
2023/03/28 08:41:40;;;;;;;4.35;1.67;;;10.60;99.90;;;;;;5031686;28;20124;-36
2023/03/28 08:44:15;;;;;;;2.58;1.40;;;10.60;99.90;;;;;;5031598;28;20423;-37
2023/03/28 08:46:43;;;;;;;3.67;1.50;;;10.60;99.90;;;;;;5031101;28;20028;-36
2023/03/28 08:49:16;;;;;;;2.47;1.50;;;10.60;99.90;;;;;;5031588;28;20056;-36
2023/03/28 08:52:01;;;;;;;3.10;1.50;;;10.60;99.90;;;;;;5031550;28;20104;-36
2023/03/28 08:54:45;;;;;;;3.40;1.63;;;10.60;99.90;;;;;;5032170;28;20028;-36
2023/03/28 08:57:21;;;;;;;1.73;1.10;;;10.70;99.90;;;;;;5033360;28;20060;-36
2023/03/28 09:00:13;;;;;;;3.53;1.65;;;10.60;99.90;;;;;;5035202;28;20480;-39
2023/03/28 09:02:40;;;;;;;2.78;1.42;;;10.70;99.90;;;;;;5033205;28;20037;-38
2023/03/28 09:05:12;;;;;;;3.88;1.50;;;10.70;99.90;;;;;;5031231;28;20039;-36
2023/03/28 09:08:08;;;;;;;2.97;1.40;;;10.70;99.90;;;;;;5030822;28;20108;-38
2023/03/28 09:10:42;;;;;;;2.83;1.60;;;10.70;99.90;;;;;;5031351;28;20547;-36
2023/03/28 09:13:35;;;;;;;1.90;1.25;;;10.80;99.90;;;;;;5031325;28;20395;-36
2023/03/28 09:16:21;;;;;;;3.85;1.75;;;10.70;99.90;;;;;;5032491;28;20033;-38
2023/03/28 09:18:59;;;;;;;3.35;1.50;;;10.80;99.90;;;;;;5031967;28;20083;-40
2023/03/28 09:21:57;;;;;;;5.60;1.65;;;10.80;99.90;;;;;;5031616;28;20535;-36
2023/03/28 09:24:47;;;;;;;2.20;1.35;;;10.90;99.90;;;;;;5031110;28;20099;-36
2023/03/28 09:27:24;;;;;;;2.80;1.40;;;10.80;99.90;;;;;;5030614;28;20052;-36
2023/03/28 09:29:55;;;;;;;3.17;1.45;;;10.90;99.90;;;;;;5031273;28;20048;-38
2023/03/28 09:32:29;;;;;;;1.85;1.20;;;10.90;99.90;;;;;;5032455;28;20394;-38
2023/03/28 09:34:55;;;;;;;;;;;10.90;99.90;;;;;;5031479;28;20036;-36
2023/03/28 09:37:34;;;;;;;5.35;1.58;;;10.90;99.90;;;;;;5031002;28;19909;-37
2023/03/28 09:40:22;;;;;;;2.35;1.40;;;10.90;99.90;;;;;;5030890;28;20360;-39
2023/03/28 09:43:03;;;;;;;3.55;1.23;;;10.90;99.90;;;;;;5030559;28;20036;-36
2023/03/28 09:45:35;;;;;;;3.25;1.27;;;10.90;99.90;;;;;;5031359;28;20022;-36
2023/03/28 09:48:15;;;;;;;2.63;1.27;;;10.90;99.90;;;;;;5031961;28;20045;-38
2023/03/28 09:50:41;;;;;;;2.83;1.13;;;10.90;99.90;;;;;;5032010;28;20101;-36
2023/03/28 09:53:23;;;;;;;2.90;1.42;;;11.00;99.90;;;;;;5032246;28;20057;-38
2023/03/28 09:55:50;;;;;;;3.33;1.40;;;10.90;99.90;;;;;;5030819;28;20100;-38
2023/03/28 09:58:17;;;;;;;4.50;1.27;;;11.00;99.90;;;;;;5031163;28;20067;-37
2023/03/28 10:00:53;;;;;;;2.00;0.95;;;10.90;99.90;;;;;;5032060;28;20037;-39
2023/03/28 10:03:28;;;;;;;5.05;1.40;;;10.90;99.90;;;;;;5033876;28;20459;-38
2023/03/28 10:05:56;;;;;;;3.30;1.30;;;10.90;99.90;;;;;;5035930;28;20021;-38
2023/03/28 10:08:22;;;;;;;3.40;1.30;;;10.90;99.90;;;;;;5036212;28;20044;-38
2023/03/28 10:11:17;;;;;;;2.42;1.63;;;10.90;99.90;;;;;;5035896;28;20491;-36
2023/03/28 10:13:50;;;;;;;2.88;1.10;;;10.90;99.90;;;;;;5034712;28;20128;-36
2023/03/28 10:16:34;;;;;;;3.47;1.23;;;10.90;99.90;;;;;;5033900;28;20022;-36
2023/03/28 10:19:00;;;;;;;2.57;1.37;;;10.90;99.90;;;;;;5034289;28;20423;-36
2023/03/28 10:21:29;;;;;;;2.28;1.20;;;10.90;99.90;;;;;;5034370;28;20017;-37
2023/03/28 10:24:02;;;;;;;2.90;1.15;;;10.90;99.90;;;;;;5035085;28;20028;-36
2023/03/28 10:26:28;;;;;;;1.98;1.05;;;10.90;99.90;;;;;;5033703;28;20472;-37
2023/03/28 10:28:59;;;;;;;2.42;1.25;;;10.90;99.90;;;;;;5032691;28;20400;-36
2023/03/28 10:31:30;;;;;;;2.47;1.30;;;11.00;99.90;;;;;;5034320;28;20029;-36
2023/03/28 10:33:58;;;;;;;2.97;1.13;;;10.90;99.90;;;;;;5034060;28;20017;-36
2023/03/28 10:36:42;;;;;;;2.15;1.40;;;10.90;99.90;;;;;;5033558;28;20100;-36
2023/03/28 10:39:25;;;;;;;7.45;1.48;;;10.90;99.90;;;;;;5033943;28;20483;-36
2023/03/28 10:42:01;;;;;;;5.60;1.88;;;10.80;99.90;;;;;;5034291;28;20049;-36
2023/03/28 10:44:35;;;;;;;4.50;1.73;;;10.80;99.90;;;;;;5033885;28;20037;-36
2023/03/28 10:47:21;;;;;;;5.72;1.52;;;10.80;99.90;;;;;;5034421;28;20036;-38
2023/03/28 10:49:51;;;;;;;5.68;1.30;;;10.80;99.90;;;;;;5035137;28;20036;-36
2023/03/28 10:52:46;;;;;;;8.32;1.65;;;10.80;99.90;;;;;;5033734;28;20056;-36
2023/03/28 10:55:22;;;;;;;7.57;1.40;;;10.80;99.90;;;;;;5033706;28;20479;-36
2023/03/28 10:57:59;;;;;;;4.45;1.40;;;10.80;99.90;;;;;;5033176;28;20079;-36
2023/03/28 11:01:02;;;;;;;3.95;1.23;;;10.80;99.90;;;;;;5033685;28;20406;-36
2023/03/28 11:04:03;;;;;;;4.20;1.23;;;10.80;99.90;;;;;;5024934;28;20033;-36
2023/03/28 11:06:51;;;;;;;3.65;1.17;;;10.80;99.90;;;;;;5029867;28;20395;-36
2023/03/28 11:09:46;;;;;;;3.45;1.30;;;10.90;99.90;;;;;;5033609;28;20033;-38
2023/03/28 11:12:30;;;;;;;4.68;1.48;;;10.90;99.90;;;;;;5033375;28;20483;-36
2023/03/28 11:14:59;;;;;;;4.05;1.15;;;10.90;99.90;;;;;;5032177;28;20821;-36
2023/03/28 11:17:33;;;;;;;2.05;1.08;;;10.90;99.90;;;;;;5032864;28;20025;-36
2023/03/28 11:20:06;;;;;;;2.65;0.80;;;11.00;99.90;;;;;;5033297;28;20490;-36
2023/03/28 11:22:46;;;;;;;2.13;1.10;;;11.00;99.90;;;;;;5033500;28;20025;-37
2023/03/28 11:25:21;;;;;;;3.15;0.98;;;11.00;99.90;;;;;;5034945;28;20120;-36
2023/03/28 11:27:46;;;;;;;3.10;1.00;;;11.00;99.90;;;;;;5033168;28;20031;-36
2023/03/28 11:30:14;;;;;;;4.85;1.35;;;11.10;99.90;;;;;;5033400;28;20033;-37
2023/03/28 11:33:14;;;;;;;2.67;0.90;;;11.10;99.90;;;;;;5033146;28;20033;-37
2023/03/28 11:35:46;;;;;;;2.08;1.08;;;11.10;99.90;;;;;;5033152;28;20563;-39
2023/03/28 11:38:45;;;;;;;1.85;1.00;;;11.10;99.90;;;;;;5033091;28;20079;-36
2023/03/28 11:41:23;;;;;;;3.10;1.10;;;11.10;99.90;;;;;;5033362;28;20029;-38
2023/03/28 11:44:19;;;;;;;2.40;0.85;;;11.20;99.90;;;;;;5032730;28;20036;-37
2023/03/28 11:47:03;;;;;;;3.63;1.13;;;11.20;99.90;;;;;;5032668;28;20033;-38
2023/03/28 11:49:36;;;;;;;3.75;1.10;;;11.20;99.90;;;;;;5034356;28;20041;-36
2023/03/28 11:52:40;;;;;;;5.18;1.10;;;11.20;99.90;;;;;;5032926;28;20074;-37
2023/03/28 11:55:22;;;;;;;3.15;1.02;;;11.20;99.90;;;;;;5033392;28;20511;-38
2023/03/28 11:58:28;;;;;;;3.90;1.33;;;11.20;99.90;;;;;;5033944;28;20030;-38
2023/03/28 12:01:14;;;;;;;4.40;1.02;;;11.20;99.90;;;;;;5012947;28;20072;-38
2023/03/28 12:04:30;;;;;;;4.78;1.00;;;11.20;99.90;;;;;;5033198;28;20400;-37
2023/03/28 12:07:17;;;;;;;3.50;1.02;;;11.20;99.90;;;;;;4993337;28;20022;-36
2023/03/28 12:09:56;;;;;;;2.75;0.95;;;11.30;99.90;;;;;;5010346;28;20578;-36
2023/03/28 12:12:54;;;;;;;2.72;0.93;;;11.30;99.90;;;;;;5027494;28;20503;-36
2023/03/28 12:15:26;;;;;;;2.38;1.05;;;11.30;99.90;;;;;;5034833;28;20026;-37
2023/03/28 12:17:56;;;;;;;4.03;0.85;;;11.30;99.90;;;;;;5034188;28;20073;-40
2023/03/28 12:20:38;;;;;;;2.40;0.80;;;11.30;99.90;;;;;;5033451;28;20025;-39
2023/03/28 12:23:15;;;;;;;1.42;0.90;;;11.30;99.90;;;;;;5032133;28;20105;-37
2023/03/28 12:25:49;;;;;;;2.45;0.90;;;11.30;99.90;;;;;;5033757;28;20379;-38
2023/03/28 12:28:25;;;;;;;1.10;0.70;;;11.30;99.90;;;;;;5033427;28;20353;-38
2023/03/28 12:31:15;;;;;;;3.05;0.80;;;11.30;99.90;;;;;;5034350;28;20029;-39
2023/03/28 12:34:22;;;;;;;2.85;0.80;;;11.30;99.90;;;;;;5030480;28;20041;-37
2023/03/28 12:36:52;;;;;;;2.00;0.88;;;11.30;99.90;;;;;;5028647;28;20068;-39
2023/03/28 12:39:40;;;;;;;3.33;1.00;;;11.30;99.90;;;;;;5033072;28;20039;-41
2023/03/28 12:42:10;;;;;;;1.77;0.73;;;11.40;99.90;;;;;;5032697;28;20377;-37
2023/03/28 12:44:44;;;;;;;2.28;0.90;;;11.30;99.90;;;;;;5032046;28;20367;-36
2023/03/28 12:47:28;;;;;;;1.48;0.70;;;11.30;99.90;;;;;;5032533;28;20022;-36
2023/03/28 12:50:05;;;;;;;1.50;0.80;;;11.40;99.90;;;;;;5033559;28;20022;-40
2023/03/28 12:52:33;;;;;;;3.33;1.10;;;11.30;99.90;;;;;;5033171;28;20033;-37
2023/03/28 12:55:06;;;;;;;1.58;0.70;;;11.30;99.90;;;;;;5033560;28;20034;-36
2023/03/28 12:57:47;;;;;;;1.60;0.73;;;11.40;99.90;;;;;;5032970;28;20034;-36
2023/03/28 13:00:25;;;;;;;3.65;1.27;;;11.40;99.90;;;;;;5033130;28;20026;-37
2023/03/28 13:03:17;;;;;;;2.03;0.80;;;11.40;99.90;;;;;;5033230;28;20024;-38
2023/03/28 13:05:42;;;;;;;1.60;0.77;;;11.40;99.90;;;;;;5031368;28;20025;-37
2023/03/28 13:08:26;;;;;;;3.15;1.38;;;11.40;99.90;;;;;;5033028;28;20037;-37
2023/03/28 13:11:06;;;;;;;3.58;0.80;;;11.40;99.90;;;;;;5032215;28;20363;-36
2023/03/28 13:14:16;;;;;;;3.03;0.80;;;11.40;99.90;;;;;;5032582;28;20399;-37
2023/03/28 13:16:46;;;;;;;1.63;0.80;;;11.40;99.90;;;;;;5030856;28;20032;-38